South Hill, Virginia
Current Conditions -  °F | °C
As of 1:36 PM on Monday 22 Dec 2014 (Local Time) from KAVC Reporting Station
Overcast Overcast  
Wind Chill: 29°   Ceiling: 400
Heat Index: 37°   Visibility: 3mi
Dew Point: 36°   Wind: 10mph
Humidity: 97%   Direction: 360°N
Pressure: 30.16"   Gusts: NA
Location:  36.73°N, 78.13°W
Report Text: KAVC 221836Z AUTO 36009KT 3SM OVC004 03/02 A3016 RMK AO2 P0001 T00250020
Loading
Personal Weather Stations






























Interactive Weather Map New forecast layout! Learn more

10-Day Weather Forecast

Advertisements
Track Severe Weather on mobile